createdAt,value
2022-08-05T00:01:28.478Z,100143.06
2022-08-05T00:06:29.344Z,100132.19
2022-08-05T00:11:34.835Z,100130.50
2022-08-05T00:16:52.448Z,100120.22
2022-08-05T00:21:50.185Z,100114.19
2022-08-05T00:26:50.984Z,100123.88
2022-08-05T00:32:11.091Z,100128.66
2022-08-05T00:37:12.927Z,100101.75
2022-08-05T00:42:32.054Z,100127.38
2022-08-05T00:47:53.059Z,100155.16
2022-08-05T00:52:46.821Z,100064.53
2022-08-05T00:57:58.146Z,100016.06
2022-08-05T01:02:56.922Z,100003.72
2022-08-05T01:08:31.622Z,100008.88
2022-08-05T01:13:27.090Z,100031.22
2022-08-05T01:18:29.681Z,100037.53
2022-08-05T01:23:54.556Z,100035.88
2022-08-05T01:29:04.327Z,100004.16
2022-08-05T01:34:12.305Z,99998.66
2022-08-05T01:39:13.233Z,100015.34
2022-08-05T01:44:11.418Z,99998.31
2022-08-05T01:49:23.268Z,99996.81
2022-08-05T01:54:25.553Z,100011.41
2022-08-05T01:59:26.552Z,100029.66
2022-08-05T02:04:26.475Z,100033.09
2022-08-05T02:09:22.891Z,100047.25
2022-08-05T02:14:39.494Z,100045.47
2022-08-05T02:19:49.032Z,100054.88
2022-08-05T02:24:51.334Z,100052.97
2022-08-05T02:29:59.542Z,100064.75
2022-08-05T02:35:02.020Z,100058.72
2022-08-05T02:40:10.585Z,100079.06
2022-08-05T02:45:09.946Z,100088.47
2022-08-05T02:50:08.719Z,100084.94
2022-08-05T02:55:10.829Z,100065.31
2022-08-05T03:00:12.439Z,100057.63
2022-08-05T03:05:11.684Z,100066.50
2022-08-05T03:10:09.439Z,100081.78
2022-08-05T03:15:09.162Z,100089.09
2022-08-05T03:20:06.695Z,100092.38
2022-08-05T03:25:32.401Z,100112.94
2022-08-05T03:30:20.818Z,100127.63
2022-08-05T03:35:28.550Z,100131.66
2022-08-05T03:40:32.012Z,100117.88
2022-08-05T03:45:29.688Z,100136.06
2022-08-05T03:52:37.667Z,100165.81
2022-08-05T03:56:42.003Z,100177.78
2022-08-05T04:01:42.363Z,100170.56
2022-08-05T04:06:48.015Z,100162.13
2022-08-05T04:11:50.725Z,100166.84
2022-08-05T04:16:49.097Z,100168.16
2022-08-05T04:22:08.236Z,100157.09
2022-08-05T04:27:01.905Z,100156.91
2022-08-05T04:31:58.918Z,100159.06
2022-08-05T04:36:57.070Z,100197.75
2022-08-05T04:41:53.401Z,100198.94
2022-08-05T04:46:51.746Z,100187.00
2022-08-05T04:51:49.291Z,100208.53
2022-08-05T04:56:59.720Z,100194.41
2022-08-05T05:02:07.693Z,100170.69
2022-08-05T05:07:17.283Z,100163.97
2022-08-05T05:12:13.690Z,100182.31
2022-08-05T05:17:11.537Z,100168.34
2022-08-05T05:22:24.258Z,100139.91
2022-08-05T05:27:22.521Z,100108.44
2022-08-05T05:32:19.338Z,100096.53
2022-08-05T05:37:17.660Z,100119.06
2022-08-05T05:42:14.293Z,100144.66
2022-08-05T05:47:13.244Z,100167.53
2022-08-05T05:52:28.647Z,100193.44
2022-08-05T05:57:42.750Z,100244.22
2022-08-05T06:02:46.189Z,100273.81
2022-08-05T06:07:43.203Z,100277.84
2022-08-05T06:12:57.638Z,100288.94
2022-08-05T06:17:54.432Z,100304.09
2022-08-05T06:22:51.278Z,100283.72
2022-08-05T06:28:12.821Z,100261.38
2022-08-05T06:33:04.024Z,100247.91
2022-08-05T06:38:04.305Z,100249.75
2022-08-05T06:43:07.683Z,100209.25
2022-08-05T06:48:52.907Z,100183.16
2022-08-05T06:53:40.404Z,100184.84
2022-08-05T06:58:36.942Z,100201.31
2022-08-05T07:03:34.140Z,100197.75
2022-08-05T07:08:30.730Z,100193.09
2022-08-05T07:13:57.628Z,100195.09
2022-08-05T07:18:54.993Z,100162.47
2022-08-05T07:23:52.364Z,100167.16
2022-08-05T07:28:50.812Z,100181.28
2022-08-05T07:33:47.177Z,100178.38
2022-08-05T07:38:44.826Z,100187.31
2022-08-05T07:43:41.190Z,100177.91
2022-08-05T07:49:01.587Z,100182.28
2022-08-05T07:53:55.778Z,100185.72
2022-08-05T07:58:57.488Z,100186.88
2022-08-05T08:03:55.719Z,100197.50
2022-08-05T08:08:53.295Z,100205.56
2022-08-05T08:14:00.978Z,100191.41
2022-08-05T08:18:57.683Z,100189.41
2022-08-05T08:24:02.216Z,100197.50
2022-08-05T08:29:22.238Z,100187.38
2022-08-05T08:34:18.521Z,100193.09
2022-08-05T08:39:18.006Z,100190.41
2022-08-05T08:45:23.124Z,100185.75
2022-08-05T08:50:07.601Z,100249.41
2022-08-05T08:54:56.606Z,100319.25
2022-08-05T08:59:56.113Z,100301.56
2022-08-05T09:05:16.359Z,100312.91
2022-08-05T09:10:09.341Z,100333.63
2022-08-05T09:15:06.821Z,100339.31
2022-08-05T09:20:05.706Z,100359.00
2022-08-05T09:25:14.048Z,100354.78
2022-08-05T09:30:23.566Z,100349.72
2022-08-05T09:35:26.632Z,100345.00
2022-08-05T09:40:36.326Z,100348.97
2022-08-05T09:46:07.831Z,100332.31
2022-08-05T09:50:58.828Z,100326.56
2022-08-05T09:56:04.536Z,100346.59
2022-08-05T10:01:14.879Z,100341.94
2022-08-05T10:06:14.652Z,100351.34
2022-08-05T10:11:16.816Z,100358.44
2022-08-05T10:16:37.852Z,100367.41
2022-08-05T10:21:40.250Z,100390.19
2022-08-05T10:26:49.002Z,100398.78
2022-08-05T10:33:01.486Z,100398.13
2022-08-05T10:37:04.378Z,100427.78
2022-08-05T10:42:22.760Z,100435.88
2022-08-05T10:47:33.004Z,100442.75
2022-08-05T10:52:59.886Z,100441.75
2022-08-05T10:58:11.359Z,100448.19
2022-08-05T11:03:25.563Z,100453.56
2022-08-05T11:08:38.134Z,100436.06
2022-08-05T11:13:55.096Z,100433.59
2022-08-05T11:20:15.713Z,100437.03
2022-08-05T11:24:50.678Z,100449.19
2022-08-05T11:30:00.711Z,100466.28
2022-08-05T11:34:57.660Z,100467.09
2022-08-05T11:40:00.711Z,100467.94
2022-08-05T11:45:05.873Z,100471.09
2022-08-05T11:50:20.020Z,100473.00
2022-08-05T11:55:16.392Z,100485.97
2022-08-05T12:00:38.351Z,100496.94
2022-08-05T12:05:39.625Z,100498.00
2022-08-05T12:10:46.119Z,100487.63
2022-08-05T12:15:50.163Z,100495.19
2022-08-05T12:20:46.892Z,100496.13
2022-08-05T12:25:53.471Z,100495.94
2022-08-05T12:30:49.896Z,100505.09
2022-08-05T12:35:46.383Z,100509.75
2022-08-05T12:40:44.565Z,100514.50
2022-08-05T12:45:54.122Z,100520.91
2022-08-05T12:52:10.672Z,100513.97
2022-08-05T12:56:35.055Z,100517.63
2022-08-05T13:02:01.886Z,100524.00
2022-08-05T13:06:51.702Z,100535.66
2022-08-05T13:12:02.683Z,100532.34
2022-08-05T13:16:59.933Z,100554.53
2022-08-05T13:21:56.725Z,100562.97
2022-08-05T13:26:53.279Z,100576.06
2022-08-05T13:32:03.979Z,100584.25
2022-08-05T13:37:01.517Z,100593.97
2022-08-05T13:41:57.876Z,100598.53
2022-08-05T13:47:04.687Z,100598.19
2022-08-05T13:52:19.532Z,100608.81
2022-08-05T13:57:26.076Z,100602.97
2022-08-05T14:02:42.169Z,100600.06
2022-08-05T14:08:01.041Z,100619.38
2022-08-05T14:12:57.557Z,100609.72
2022-08-05T14:17:57.749Z,100618.59
2022-08-05T14:22:57.914Z,100623.53
2022-08-05T14:27:54.500Z,100621.09
2022-08-05T14:32:51.263Z,100616.66
2022-08-05T14:37:52.104Z,100615.28
2022-08-05T14:42:50.432Z,100613.88
2022-08-05T14:48:02.496Z,100621.06
2022-08-05T14:53:01.849Z,100635.06
2022-08-05T14:57:58.552Z,100625.91
2022-08-05T15:02:55.220Z,100637.38
2022-08-05T15:08:10.880Z,100641.28
2022-08-05T15:13:08.349Z,100637.09
2022-08-05T15:18:06.727Z,100633.59
2022-08-05T15:23:11.107Z,100641.97
2022-08-05T15:28:09.041Z,100635.31
2022-08-05T15:33:11.670Z,100637.88
2022-08-05T15:38:34.708Z,100644.88
2022-08-05T15:43:24.669Z,100637.69
2022-08-05T15:48:21.034Z,100635.09
2022-08-05T15:53:17.516Z,100636.31
2022-08-05T15:58:17.633Z,100641.50
2022-08-05T16:03:13.973Z,100641.59
2022-08-05T16:08:11.370Z,100640.66
2022-08-05T16:13:12.531Z,100658.13
2022-08-05T16:18:15.728Z,100662.50
2022-08-05T16:23:14.012Z,100659.81
2022-08-05T16:28:11.714Z,100662.28
2022-08-05T16:33:08.113Z,100672.38
2022-08-05T16:38:18.860Z,100679.34
2022-08-05T16:43:23.480Z,100678.97
2022-08-05T16:48:25.591Z,100691.41
2022-08-05T16:53:32.257Z,100688.63
2022-08-05T16:58:46.031Z,100698.88
2022-08-05T17:03:42.438Z,100697.66
2022-08-05T17:08:53.927Z,100710.50
2022-08-05T17:13:51.157Z,100716.16
2022-08-05T17:18:56.786Z,100725.09
2022-08-05T17:24:05.809Z,100725.13
2022-08-05T17:29:10.052Z,100740.59
2022-08-05T17:34:06.675Z,100743.25
2022-08-05T17:39:05.198Z,100745.78
2022-08-05T17:44:32.324Z,100757.31
2022-08-05T17:49:28.947Z,100773.94
2022-08-05T17:54:45.272Z,100769.63
2022-08-05T17:59:41.688Z,100771.75
2022-08-05T18:04:51.385Z,100782.97
2022-08-05T18:10:02.093Z,100786.69
2022-08-05T18:15:06.965Z,100797.78
2022-08-05T18:20:06.425Z,100805.47
2022-08-05T18:25:11.645Z,100817.28
2022-08-05T18:30:13.649Z,100818.47
2022-08-05T18:35:11.542Z,100828.38
2022-08-05T18:41:53.154Z,100840.66
2022-08-05T18:45:40.896Z,100850.41
2022-08-05T18:50:56.981Z,100854.34
2022-08-05T18:55:58.203Z,100858.31
2022-08-05T19:00:56.344Z,100865.84
2022-08-05T19:06:12.843Z,100871.75
2022-08-05T19:11:09.599Z,100879.28
2022-08-05T19:16:22.234Z,100875.75
2022-08-05T19:21:26.156Z,100894.00
2022-08-05T19:26:25.783Z,100891.69
2022-08-05T19:31:22.962Z,100887.19
2022-08-05T19:36:19.531Z,100902.25
2022-08-05T19:41:16.232Z,100899.88
2022-08-05T19:46:29.460Z,100911.31
2022-08-05T19:51:56.602Z,100924.19
2022-08-05T19:56:43.996Z,100925.78
2022-08-05T20:01:40.435Z,100930.69
2022-08-05T20:06:45.959Z,100934.91
2022-08-05T20:11:48.217Z,100943.50
2022-08-05T20:16:45.092Z,100949.81
2022-08-05T20:21:41.471Z,100954.53
2022-08-05T20:26:39.876Z,100955.50
2022-08-05T20:31:52.148Z,100971.19
2022-08-05T20:36:48.786Z,100971.41
2022-08-05T20:41:49.162Z,100976.28
2022-08-05T20:46:45.524Z,100985.75
2022-08-05T20:51:42.560Z,100991.22
2022-08-05T20:56:42.151Z,101001.50
2022-08-05T21:01:39.207Z,100997.03
2022-08-05T21:06:36.439Z,101000.81
2022-08-05T21:12:10.553Z,100995.59
2022-08-05T21:16:49.276Z,101000.09
2022-08-05T21:21:50.655Z,100998.63
2022-08-05T21:26:58.419Z,100999.63
2022-08-05T21:31:55.499Z,101002.53
2022-08-05T21:36:52.148Z,101006.41
2022-08-05T21:41:52.619Z,101007.41
2022-08-05T21:46:49.369Z,101006.78
2022-08-05T21:52:27.113Z,101002.50
2022-08-05T21:57:29.587Z,101005.41
2022-08-05T22:02:21.098Z,101017.00
2022-08-05T22:07:17.484Z,101017.19
2022-08-05T22:12:34.469Z,101020.06
2022-08-05T22:17:40.592Z,101029.50
2022-08-05T22:23:17.072Z,101030.97
2022-08-05T22:28:18.283Z,101024.78
2022-08-05T22:33:15.657Z,101041.94
2022-08-05T22:38:12.676Z,101045.84
2022-08-05T22:43:09.136Z,101049.44
2022-08-05T22:48:05.719Z,101053.72
2022-08-05T22:53:04.244Z,101051.63
2022-08-05T22:58:06.287Z,101056.34
2022-08-05T23:03:08.056Z,101057.94
2022-08-05T23:08:09.796Z,101071.97
2022-08-05T23:13:07.833Z,101070.56
2022-08-05T23:18:06.151Z,101079.97
2022-08-05T23:23:09.024Z,101082.66
2022-08-05T23:28:07.565Z,101092.13
2022-08-05T23:33:04.131Z,101090.09
2022-08-05T23:38:00.506Z,101107.91
2022-08-05T23:42:56.829Z,101110.69
2022-08-05T23:47:53.901Z,101105.56
2022-08-05T23:52:55.912Z,101121.88
2022-08-05T23:57:52.783Z,101121.84
